Time;durP1;ratioP1;P1;durP2;ratioP2;P2;SDS_P1;SDS_P2;PMS_P1;PMS_P2;Temp;Humidity;BMP_temperature;BMP_pressure;BME280_temperature;BME280_humidity;BME280_pressure;Samples;Min_cycle;Max_cycle;Signal;HPM_P1;HPM_P2
2021/12/13 00:01:30;;;;;;;12.73;8.23;;;2.20;99.90;;;;;;5008996;28;20454;-59
2021/12/13 00:04:31;;;;;;;19.67;10.77;;;2.20;99.90;;;;;;5007960;28;20858;-60
2021/12/13 00:07:12;;;;;;;16.13;9.57;;;2.20;99.90;;;;;;5009411;28;20569;-60
2021/12/13 00:09:42;;;;;;;17.73;9.83;;;2.20;99.90;;;;;;5006277;28;20414;-57
2021/12/13 00:12:09;;;;;;;15.43;8.60;;;2.20;99.90;;;;;;5006809;28;20506;-57
2021/12/13 00:14:39;;;;;;;19.07;8.97;;;2.20;99.90;;;;;;5007553;28;20419;-60
2021/12/13 00:17:07;;;;;;;16.90;9.80;;;2.20;99.90;;;;;;5006849;28;20431;-60
2021/12/13 00:19:59;;;;;;;14.00;8.83;;;2.20;99.90;;;;;;5005257;28;20545;-59
2021/12/13 00:22:47;;;;;;;13.60;8.30;;;2.20;99.90;;;;;;5007322;28;20733;-60
2021/12/13 00:25:28;;;;;;;14.50;8.43;;;2.20;99.90;;;;;;5007420;28;20420;-60
2021/12/13 00:28:07;;;;;;;13.10;8.27;;;2.20;99.90;;;;;;5003835;28;20450;-59
2021/12/13 00:30:44;;;;;;;17.90;8.23;;;2.20;99.90;;;;;;5003970;28;20411;-59
2021/12/13 00:33:30;;;;;;;11.80;7.83;;;2.20;99.90;;;;;;5002324;28;20790;-58
2021/12/13 00:36:06;;;;;;;12.10;7.77;;;2.20;99.90;;;;;;5009868;28;20447;-59
2021/12/13 00:38:38;;;;;;;12.27;7.80;;;2.20;99.90;;;;;;5003299;28;20493;-59
2021/12/13 00:41:15;;;;;;;12.80;7.50;;;2.20;99.90;;;;;;5006112;28;20473;-59
2021/12/13 00:43:49;;;;;;;12.87;8.30;;;2.20;99.90;;;;;;5005870;28;20423;-61
2021/12/13 00:46:17;;;;;;;10.80;7.10;;;2.20;99.90;;;;;;5007347;28;20627;-60
2021/12/13 00:48:48;;;;;;;12.50;7.03;;;2.20;99.90;;;;;;5006374;28;20484;-59
2021/12/13 00:51:28;;;;;;;10.10;6.67;;;2.20;99.90;;;;;;5005461;28;20408;-59
2021/12/13 00:53:58;;;;;;;10.70;7.30;;;2.20;99.90;;;;;;5006082;28;20462;-60
2021/12/13 00:56:56;;;;;;;11.97;7.80;;;2.20;99.90;;;;;;5005146;28;20446;-60
2021/12/13 00:59:35;;;;;;;13.33;7.87;;;2.10;99.90;;;;;;5021935;28;20439;-60
2021/12/13 01:02:09;;;;;;;13.40;7.33;;;2.20;99.90;;;;;;5003490;28;20518;-60
2021/12/13 01:05:05;;;;;;;11.80;7.00;;;2.20;99.90;;;;;;5006967;28;20429;-60
2021/12/13 01:07:55;;;;;;;11.63;7.33;;;2.20;99.90;;;;;;5002992;28;20436;-57
2021/12/13 01:11:00;;;;;;;10.27;6.63;;;2.20;99.90;;;;;;5021987;28;20852;-61
2021/12/13 01:13:41;;;;;;;13.67;7.40;;;2.20;99.90;;;;;;5001810;28;20594;-60
2021/12/13 01:22:25;;;;;;;13.83;7.93;;;2.20;99.90;;;;;;5005395;28;20555;-59
2021/12/13 01:27:43;;;;;;;11.33;6.70;;;2.30;99.90;;;;;;5007684;28;20415;-60
2021/12/13 01:30:18;;;;;;;13.23;7.13;;;2.30;99.90;;;;;;5004556;28;20428;-60
2021/12/13 01:32:49;;;;;;;15.40;7.60;;;2.30;99.90;;;;;;5006808;28;20506;-59
2021/12/13 01:35:20;;;;;;;10.90;6.90;;;2.30;99.90;;;;;;5005383;28;20857;-60
2021/12/13 01:37:52;;;;;;;14.73;8.50;;;2.30;99.90;;;;;;5007051;28;20418;-60
2021/12/13 01:40:27;;;;;;;13.07;6.93;;;2.30;99.90;;;;;;5009766;28;20461;-61
2021/12/13 01:42:57;;;;;;;11.57;7.40;;;2.20;99.90;;;;;;5024985;28;20437;-61
2021/12/13 01:45:25;;;;;;;13.57;8.00;;;2.20;99.90;;;;;;5038867;28;20508;-59
2021/12/13 01:47:51;;;;;;;10.53;6.90;;;2.20;99.90;;;;;;5003330;28;20432;-59
2021/12/13 01:50:23;;;;;;;14.43;8.80;;;2.20;99.90;;;;;;5004095;28;20440;-59
2021/12/13 01:52:53;;;;;;;15.43;7.70;;;2.20;99.90;;;;;;5005316;28;22282;-60
2021/12/13 01:55:23;;;;;;;12.63;8.13;;;2.20;99.90;;;;;;4998890;28;21126;-60
2021/12/13 01:57:55;;;;;;;13.53;7.83;;;2.20;99.90;;;;;;5003512;28;20427;-60
2021/12/13 02:01:08;;;;;;;13.07;7.80;;;2.20;99.90;;;;;;5002961;28;20458;-59
2021/12/13 02:03:41;;;;;;;11.53;7.37;;;2.20;99.90;;;;;;5003667;28;20459;-58
2021/12/13 02:06:07;;;;;;;15.53;7.53;;;2.30;99.90;;;;;;5019318;28;20549;-58
2021/12/13 02:08:33;;;;;;;12.37;7.40;;;2.30;99.90;;;;;;5004024;28;20534;-59
2021/12/13 02:10:59;;;;;;;11.63;7.23;;;2.30;99.90;;;;;;5002033;28;20482;-60
2021/12/13 02:13:37;;;;;;;12.63;7.87;;;2.30;99.90;;;;;;5004369;28;20456;-60
2021/12/13 02:18:53;;;;;;;13.00;7.90;;;2.30;99.90;;;;;;5008309;28;20519;-59
2021/12/13 02:21:36;;;;;;;13.60;7.83;;;2.30;99.90;;;;;;5004384;28;20455;-60
2021/12/13 02:24:12;;;;;;;14.53;8.30;;;2.30;99.90;;;;;;5014793;28;20783;-59
2021/12/13 02:26:41;;;;;;;11.93;6.80;;;2.30;99.90;;;;;;5004308;28;20746;-59
2021/12/13 02:29:19;;;;;;;10.93;7.13;;;2.30;99.90;;;;;;5003628;28;20967;-61
2021/12/13 02:31:45;;;;;;;12.53;6.80;;;2.30;99.90;;;;;;5002938;28;20448;-59
2021/12/13 02:34:15;;;;;;;10.37;7.13;;;2.30;99.90;;;;;;4999302;28;20439;-58
2021/12/13 02:36:45;;;;;;;13.17;7.67;;;2.30;99.90;;;;;;5002376;28;20451;-59
2021/12/13 02:39:23;;;;;;;12.30;7.50;;;2.30;99.90;;;;;;5004242;28;20805;-59
2021/12/13 02:41:49;;;;;;;9.13;6.40;;;2.30;99.90;;;;;;5002524;28;20550;-60
2021/12/13 02:44:26;;;;;;;11.20;7.13;;;2.30;99.90;;;;;;5005079;28;20418;-58
2021/12/13 02:46:58;;;;;;;12.03;7.00;;;2.30;99.90;;;;;;5002928;28;20474;-56
2021/12/13 02:49:24;;;;;;;8.27;5.43;;;2.30;99.90;;;;;;5005032;28;21050;-58
2021/12/13 02:51:58;;;;;;;7.23;5.23;;;2.30;99.90;;;;;;5001260;28;20435;-58
2021/12/13 02:54:45;;;;;;;9.67;5.30;;;2.30;99.90;;;;;;5001375;28;20974;-58
2021/12/13 02:57:39;;;;;;;9.10;6.03;;;2.30;99.90;;;;;;5002056;28;20448;-56
2021/12/13 03:00:26;;;;;;;9.93;6.00;;;2.30;99.90;;;;;;4998422;28;21048;-56
2021/12/13 03:02:55;;;;;;;6.70;4.70;;;2.30;99.90;;;;;;5000196;28;20436;-58
2021/12/13 03:07:56;;;;;;;8.53;5.03;;;2.20;99.90;;;;;;5021347;28;20468;-61
2021/12/13 03:10:30;;;;;;;8.63;5.00;;;2.30;99.90;;;;;;5026840;28;20942;-58
2021/12/13 03:12:56;;;;;;;11.10;5.50;;;2.30;99.90;;;;;;5027302;28;20812;-58
2021/12/13 03:15:26;;;;;;;9.50;5.77;;;2.30;99.90;;;;;;5028123;28;20410;-60
2021/12/13 03:18:59;;;;;;;8.33;5.77;;;2.20;99.90;;;;;;5006865;28;20423;-60
2021/12/13 03:22:06;;;;;;;12.37;6.13;;;2.30;99.90;;;;;;4951685;28;20460;-61
2021/12/13 03:24:37;;;;;;;9.70;6.60;;;2.30;99.90;;;;;;4951822;28;20524;-61
2021/12/13 03:27:56;;;;;;;12.27;6.90;;;2.30;99.90;;;;;;5005799;28;20465;-60
2021/12/13 03:30:22;;;;;;;9.87;6.33;;;2.30;99.90;;;;;;4965569;28;20495;-60
2021/12/13 03:33:23;;;;;;;11.93;6.90;;;2.20;99.90;;;;;;5000876;28;20483;-61
2021/12/13 03:35:59;;;;;;;11.23;5.93;;;2.30;99.90;;;;;;4962132;28;20198;-60
2021/12/13 03:38:31;;;;;;;11.60;6.30;;;2.30;99.90;;;;;;5002273;28;20457;-61
2021/12/13 03:41:03;;;;;;;11.00;7.30;;;2.20;99.90;;;;;;5007752;28;20454;-61
2021/12/13 03:43:42;;;;;;;10.37;6.67;;;2.20;99.90;;;;;;5005378;28;20450;-61
2021/12/13 03:46:11;;;;;;;9.50;5.87;;;2.20;99.90;;;;;;5007827;28;20545;-60
2021/12/13 03:48:39;;;;;;;10.23;6.00;;;2.20;99.90;;;;;;5007835;28;20410;-61
2021/12/13 03:51:12;;;;;;;7.17;5.40;;;2.20;99.90;;;;;;5005943;28;20463;-61
2021/12/13 03:53:37;;;;;;;9.87;5.43;;;2.20;99.90;;;;;;5006306;28;20427;-60
2021/12/13 03:56:08;;;;;;;6.73;4.60;;;2.20;99.90;;;;;;5007158;28;20824;-59
2021/12/13 03:58:38;;;;;;;7.90;5.37;;;2.20;99.90;;;;;;5005333;28;20188;-61
2021/12/13 04:01:09;;;;;;;11.70;6.70;;;2.20;99.90;;;;;;5006588;28;20784;-61
2021/12/13 04:03:36;;;;;;;12.03;6.80;;;2.20;99.90;;;;;;5005841;28;20455;-61
2021/12/13 04:06:04;;;;;;;13.63;6.53;;;2.20;99.90;;;;;;5006958;28;20921;-61
2021/12/13 04:08:30;;;;;;;10.67;6.40;;;2.20;99.90;;;;;;5005120;28;20415;-61
2021/12/13 04:11:00;;;;;;;10.63;6.60;;;2.20;99.90;;;;;;5005820;28;20431;-60
2021/12/13 04:13:31;;;;;;;12.23;7.30;;;2.20;99.90;;;;;;5006238;28;20422;-61
2021/12/13 04:16:28;;;;;;;10.03;6.53;;;2.20;99.90;;;;;;5007243;28;20470;-60
2021/12/13 04:19:13;;;;;;;11.70;6.67;;;2.10;99.90;;;;;;5020571;28;20841;-60
2021/12/13 04:22:00;;;;;;;13.10;6.60;;;2.10;99.90;;;;;;5006026;28;20518;-60
2021/12/13 04:24:42;;;;;;;11.80;6.97;;;2.20;99.90;;;;;;5006569;28;20426;-60
2021/12/13 04:27:41;;;;;;;12.10;7.53;;;2.20;99.90;;;;;;5022566;28;20435;-61
2021/12/13 04:30:25;;;;;;;7.77;5.53;;;2.20;99.90;;;;;;5006327;28;20410;-61
2021/12/13 04:32:58;;;;;;;16.00;6.47;;;2.20;99.90;;;;;;5007549;28;20403;-61
2021/12/13 04:35:25;;;;;;;12.37;7.07;;;2.20;99.90;;;;;;5007772;28;20408;-60
2021/12/13 04:37:54;;;;;;;8.17;5.97;;;2.10;99.90;;;;;;5007158;28;20435;-60
2021/12/13 04:40:25;;;;;;;10.80;6.70;;;2.10;99.90;;;;;;5021965;28;20517;-61
2021/12/13 04:43:05;;;;;;;10.03;6.23;;;2.10;99.90;;;;;;5006907;28;20411;-60
2021/12/13 04:45:32;;;;;;;12.53;6.63;;;2.10;99.90;;;;;;5005873;28;20957;-60
2021/12/13 04:48:23;;;;;;;11.40;6.50;;;2.10;99.90;;;;;;5002636;28;20470;-60
2021/12/13 04:51:05;;;;;;;9.83;6.10;;;2.10;99.90;;;;;;5007049;28;20779;-61
2021/12/13 04:53:37;;;;;;;14.00;8.10;;;2.10;99.90;;;;;;5019846;28;20510;-60
2021/12/13 04:56:10;;;;;;;13.37;7.33;;;2.10;99.90;;;;;;5005200;28;20478;-62
2021/12/13 04:58:40;;;;;;;16.17;9.10;;;2.10;99.90;;;;;;5009407;28;20419;-58
2021/12/13 05:01:09;;;;;;;14.27;8.63;;;2.10;99.90;;;;;;5016194;28;20508;-60
2021/12/13 05:03:43;;;;;;;13.93;8.43;;;2.10;99.90;;;;;;5007402;28;20944;-61
2021/12/13 05:06:15;;;;;;;18.93;10.50;;;2.10;99.90;;;;;;4999109;28;20465;-62
2021/12/13 05:08:44;;;;;;;18.70;10.50;;;2.10;99.90;;;;;;5005783;28;20434;-60
2021/12/13 05:11:11;;;;;;;16.77;9.20;;;2.10;99.90;;;;;;5000219;28;20450;-62
2021/12/13 05:13:51;;;;;;;11.20;6.77;;;2.10;99.90;;;;;;4999529;28;20886;-61
2021/12/13 05:16:25;;;;;;;10.67;6.40;;;2.10;99.90;;;;;;5002645;28;20439;-61
2021/12/13 05:18:55;;;;;;;15.40;7.60;;;2.10;99.90;;;;;;5002793;28;20797;-62
2021/12/13 05:21:46;;;;;;;12.03;7.50;;;2.10;99.90;;;;;;5005927;28;20502;-60
2021/12/13 05:24:26;;;;;;;10.20;6.20;;;2.10;99.90;;;;;;5008334;28;20439;-60
2021/12/13 05:27:04;;;;;;;9.70;6.60;;;2.10;99.90;;;;;;5003109;28;20485;-61
2021/12/13 05:29:43;;;;;;;10.43;6.50;;;2.10;99.90;;;;;;5006194;28;20846;-61
2021/12/13 05:32:23;;;;;;;10.60;7.00;;;2.20;99.90;;;;;;4998635;28;20530;-61
2021/12/13 05:34:49;;;;;;;10.53;6.60;;;2.20;99.90;;;;;;5021063;28;20505;-61
2021/12/13 05:37:16;;;;;;;10.37;6.93;;;2.20;99.90;;;;;;5001151;28;20452;-59
2021/12/13 05:40:03;;;;;;;10.63;6.13;;;2.20;99.90;;;;;;5008737;28;20262;-58
2021/12/13 05:42:54;;;;;;;9.83;5.97;;;2.20;99.90;;;;;;4999758;28;20421;-61
2021/12/13 05:45:37;;;;;;;11.47;6.47;;;2.20;99.90;;;;;;5004584;28;20420;-62
2021/12/13 05:48:05;;;;;;;18.57;7.03;;;2.20;99.90;;;;;;5004635;28;20432;-60
2021/12/13 05:50:53;;;;;;;12.07;6.53;;;2.20;99.90;;;;;;5029134;28;20459;-61
2021/12/13 05:53:31;;;;;;;12.60;6.53;;;2.30;99.90;;;;;;5006043;28;20443;-61
2021/12/13 05:56:14;;;;;;;13.40;7.57;;;2.30;99.90;;;;;;5008252;28;20447;-59
2021/12/13 05:59:12;;;;;;;20.53;7.30;;;2.30;99.90;;;;;;5011057;28;20417;-61
2021/12/13 06:02:11;;;;;;;12.47;6.67;;;2.30;99.90;;;;;;5018392;28;20465;-62
2021/12/13 06:04:56;;;;;;;14.80;7.07;;;2.30;99.90;;;;;;4997641;28;20432;-61
2021/12/13 06:07:27;;;;;;;21.97;7.17;;;2.30;99.90;;;;;;5002084;28;20702;-60
2021/12/13 06:10:25;;;;;;;9.63;6.50;;;2.30;99.90;;;;;;5012456;28;20451;-61
2021/12/13 06:13:04;;;;;;;11.60;5.73;;;2.30;99.90;;;;;;4995162;28;21028;-61
2021/12/13 06:15:35;;;;;;;8.33;5.60;;;2.20;99.90;;;;;;5008210;28;20937;-61
2021/12/13 06:18:04;;;;;;;8.27;6.10;;;2.20;99.90;;;;;;5007577;28;20825;-60
2021/12/13 06:20:34;;;;;;;18.13;7.33;;;2.20;99.90;;;;;;5019484;28;20488;-61
2021/12/13 06:23:10;;;;;;;10.90;6.60;;;2.20;99.90;;;;;;5002782;28;20467;-61
2021/12/13 06:25:38;;;;;;;15.10;5.50;;;2.20;99.90;;;;;;5017911;28;20473;-62
2021/12/13 06:28:05;;;;;;;10.07;5.33;;;2.20;99.90;;;;;;5011064;28;20458;-60
2021/12/13 06:30:35;;;;;;;8.50;5.60;;;2.20;99.90;;;;;;5022555;28;20498;-61
2021/12/13 06:33:06;;;;;;;11.53;5.97;;;2.20;99.90;;;;;;5005943;28;20589;-62
2021/12/13 06:35:48;;;;;;;14.30;5.57;;;2.20;99.90;;;;;;5002500;28;20439;-61
2021/12/13 06:38:20;;;;;;;16.43;7.50;;;2.20;99.90;;;;;;5005835;28;20428;-60
2021/12/13 06:40:59;;;;;;;18.77;7.93;;;2.20;99.90;;;;;;5023241;28;20462;-61
2021/12/13 06:43:37;;;;;;;18.50;7.80;;;2.20;99.90;;;;;;5026221;28;20427;-62
2021/12/13 06:46:23;;;;;;;16.10;7.83;;;2.20;99.90;;;;;;5027794;28;20457;-62
2021/12/13 06:48:54;;;;;;;20.33;8.90;;;2.20;99.90;;;;;;5018051;28;20502;-62
2021/12/13 06:51:35;;;;;;;16.03;9.37;;;2.10;99.90;;;;;;5012885;28;20434;-62
2021/12/13 06:54:06;;;;;;;11.00;6.63;;;2.10;99.90;;;;;;5030813;28;20442;-60
2021/12/13 06:56:35;;;;;;;20.63;8.00;;;2.10;99.90;;;;;;5027659;28;20435;-59
2021/12/13 06:59:06;;;;;;;19.70;7.50;;;2.10;99.90;;;;;;5011623;28;20454;-62
2021/12/13 07:01:35;;;;;;;20.83;9.77;;;2.10;99.90;;;;;;5009099;28;20485;-61
2021/12/13 07:04:10;;;;;;;20.07;9.13;;;2.10;99.90;;;;;;5025085;28;20425;-61
2021/12/13 07:06:38;;;;;;;16.23;9.20;;;2.10;99.90;;;;;;5022780;28;21006;-60
2021/12/13 07:09:13;;;;;;;30.20;11.43;;;2.00;99.90;;;;;;5010208;28;20417;-61
2021/12/13 07:11:53;;;;;;;16.63;8.90;;;2.10;99.90;;;;;;5010801;28;20435;-61
2021/12/13 07:14:30;;;;;;;18.70;9.23;;;2.10;99.90;;;;;;5008718;28;20492;-62
2021/12/13 07:16:56;;;;;;;14.93;8.60;;;2.10;99.90;;;;;;5027506;28;20441;-61
2021/12/13 07:19:27;;;;;;;18.60;9.67;;;2.10;99.90;;;;;;5026401;28;20977;-62
2021/12/13 07:21:56;;;;;;;26.93;11.00;;;2.10;99.90;;;;;;5013776;28;20690;-61
2021/12/13 07:24:43;;;;;;;20.27;9.93;;;2.10;99.90;;;;;;5020791;28;20949;-61
2021/12/13 07:27:27;;;;;;;22.67;9.53;;;2.20;99.90;;;;;;5020471;28;20981;-61
2021/12/13 07:29:55;;;;;;;16.03;8.40;;;2.10;99.90;;;;;;5009779;28;20424;-61
2021/12/13 07:32:28;;;;;;;16.30;9.40;;;2.20;99.90;;;;;;5009215;28;20948;-61
2021/12/13 07:35:12;;;;;;;14.27;8.93;;;2.20;99.90;;;;;;5019019;28;20429;-61
2021/12/13 07:37:44;;;;;;;13.13;8.00;;;2.20;99.90;;;;;;5026876;28;20446;-61
2021/12/13 07:40:20;;;;;;;23.37;8.80;;;2.30;99.90;;;;;;5018198;28;20447;-62
2021/12/13 07:43:00;;;;;;;13.50;7.90;;;2.30;99.90;;;;;;5025970;28;20954;-60
2021/12/13 07:45:29;;;;;;;19.33;8.60;;;2.30;99.90;;;;;;5011017;28;20417;-62
2021/12/13 07:47:58;;;;;;;22.23;8.93;;;2.30;99.90;;;;;;5025310;28;20431;-60
2021/12/13 07:50:24;;;;;;;16.43;8.10;;;2.30;99.90;;;;;;5005041;28;20485;-61
2021/12/13 07:53:01;;;;;;;22.23;8.70;;;2.40;99.90;;;;;;5025792;28;20429;-61
2021/12/13 07:55:29;;;;;;;15.93;9.63;;;2.40;99.90;;;;;;5010032;28;20443;-61
2021/12/13 07:57:58;;;;;;;21.33;9.43;;;2.40;99.90;;;;;;5009705;28;20415;-60
2021/12/13 08:00:26;;;;;;;28.20;10.40;;;2.50;99.90;;;;;;5005471;28;20946;-61
2021/12/13 08:02:57;;;;;;;20.27;10.53;;;2.50;99.90;;;;;;5005241;28;20537;-61
2021/12/13 08:05:28;;;;;;;24.60;10.60;;;2.50;99.90;;;;;;5027311;28;20437;-61
2021/12/13 08:07:59;;;;;;;23.23;12.50;;;2.50;99.90;;;;;;5012811;28;20446;-61
2021/12/13 08:10:33;;;;;;;21.30;10.90;;;2.50;99.90;;;;;;5009852;28;20430;-61
2021/12/13 08:13:17;;;;;;;21.87;10.23;;;2.50;99.90;;;;;;5025455;28;20506;-62
2021/12/13 08:15:51;;;;;;;22.93;10.10;;;2.50;99.90;;;;;;5024415;28;20430;-61
2021/12/13 08:18:36;;;;;;;23.73;10.27;;;2.50;99.90;;;;;;5008432;28;20424;-62
2021/12/13 08:21:07;;;;;;;22.83;11.00;;;2.40;99.90;;;;;;5028501;28;20485;-60
2021/12/13 08:23:49;;;;;;;18.37;10.20;;;2.40;99.90;;;;;;5022285;28;20444;-61
2021/12/13 08:26:29;;;;;;;19.70;12.23;;;2.50;99.90;;;;;;5008978;28;20469;-61
2021/12/13 08:28:58;;;;;;;20.43;11.23;;;2.50;99.90;;;;;;5011742;28;20442;-60
2021/12/13 08:31:30;;;;;;;28.03;12.23;;;2.50;99.90;;;;;;5010509;28;20440;-60
2021/12/13 08:34:00;;;;;;;26.10;11.63;;;2.50;99.90;;;;;;5014114;28;20483;-60
2021/12/13 08:36:31;;;;;;;25.27;10.77;;;2.60;99.90;;;;;;5025830;28;20443;-61
2021/12/13 08:39:06;;;;;;;20.50;11.00;;;2.60;99.90;;;;;;5009012;28;20992;-61
2021/12/13 08:41:39;;;;;;;18.67;10.40;;;2.60;99.90;;;;;;5004934;28;20822;-61
2021/12/13 08:44:10;;;;;;;27.67;12.20;;;2.60;99.90;;;;;;5016590;28;20483;-62
2021/12/13 08:46:36;;;;;;;22.37;10.90;;;2.60;99.90;;;;;;5025105;28;21038;-60
2021/12/13 08:49:24;;;;;;;24.23;11.30;;;2.60;99.90;;;;;;5025875;28;20432;-61
2021/12/13 08:51:52;;;;;;;25.77;12.60;;;2.60;99.90;;;;;;5023615;28;20175;-61
2021/12/13 08:54:21;;;;;;;22.27;10.60;;;2.60;99.90;;;;;;5023871;28;21487;-61
2021/12/13 08:56:49;;;;;;;19.33;9.57;;;2.70;99.90;;;;;;5025622;28;20458;-61
2021/12/13 08:59:23;;;;;;;23.10;10.67;;;2.70;99.90;;;;;;5003706;28;20509;-61
2021/12/13 09:02:04;;;;;;;24.00;11.60;;;2.70;99.90;;;;;;5006125;28;20454;-61
2021/12/13 09:05:02;;;;;;;22.00;10.40;;;2.70;99.90;;;;;;4994719;28;20435;-61
2021/12/13 09:07:29;;;;;;;24.47;9.53;;;2.80;99.90;;;;;;5005824;28;20860;-61
2021/12/13 09:09:56;;;;;;;21.30;11.10;;;2.80;99.90;;;;;;5023082;28;20434;-61
2021/12/13 09:12:44;;;;;;;22.50;10.27;;;2.80;99.90;;;;;;5014678;28;20427;-61
2021/12/13 09:15:24;;;;;;;30.63;11.23;;;2.90;99.90;;;;;;5029670;28;20438;-61
2021/12/13 09:17:51;;;;;;;28.57;12.60;;;3.00;99.90;;;;;;5013566;28;20525;-61
2021/12/13 09:20:28;;;;;;;22.40;10.60;;;3.00;99.90;;;;;;5007468;28;20456;-60
2021/12/13 09:23:17;;;;;;;24.97;11.40;;;3.10;99.90;;;;;;5020043;28;20473;-62
2021/12/13 09:25:51;;;;;;;32.90;12.70;;;3.10;99.90;;;;;;5020496;28;20423;-61
2021/12/13 09:28:18;;;;;;;33.97;13.97;;;3.10;99.90;;;;;;5017056;28;20957;-60
2021/12/13 09:30:44;;;;;;;40.83;14.67;;;3.10;99.90;;;;;;5014843;28;20429;-61
2021/12/13 09:33:18;;;;;;;53.80;17.90;;;3.10;99.90;;;;;;5014667;28;20454;-61
2021/12/13 09:36:07;;;;;;;49.70;16.27;;;3.10;99.90;;;;;;5031937;28;20622;-61
2021/12/13 09:38:32;;;;;;;29.93;12.27;;;3.10;99.90;;;;;;5027833;28;20417;-61
2021/12/13 09:41:27;;;;;;;43.13;12.33;;;3.00;99.90;;;;;;5008027;28;20465;-62
2021/12/13 09:44:18;;;;;;;37.43;12.47;;;3.00;99.90;;;;;;5018965;28;20199;-62
2021/12/13 09:47:06;;;;;;;35.77;13.47;;;3.00;99.90;;;;;;5010254;28;21526;-60
2021/12/13 09:49:46;;;;;;;38.30;13.10;;;2.90;99.90;;;;;;5001549;28;20436;-59
2021/12/13 09:52:24;;;;;;;27.00;11.37;;;3.00;99.90;;;;;;5006664;28;20461;-61
2021/12/13 09:55:08;;;;;;;26.60;11.97;;;3.00;99.90;;;;;;5026240;28;20426;-61
2021/12/13 09:57:41;;;;;;;29.53;9.87;;;3.10;99.90;;;;;;5010712;28;20467;-61
2021/12/13 10:00:15;;;;;;;27.17;10.30;;;3.20;99.90;;;;;;5023205;28;21019;-61
2021/12/13 10:02:48;;;;;;;29.53;9.53;;;3.20;99.90;;;;;;5009356;28;20429;-61
2021/12/13 10:05:18;;;;;;;43.07;14.10;;;3.30;99.90;;;;;;5024276;28;20538;-61
2021/12/13 10:07:50;;;;;;;42.87;14.57;;;3.30;99.90;;;;;;5007380;28;20468;-62
2021/12/13 10:10:21;;;;;;;31.73;11.37;;;3.30;99.90;;;;;;5021378;28;21008;-62
2021/12/13 10:12:52;;;;;;;28.07;11.87;;;3.30;99.90;;;;;;5022175;28;20435;-61
2021/12/13 10:15:40;;;;;;;39.17;11.50;;;3.40;99.90;;;;;;5024956;28;20419;-61
2021/12/13 10:18:11;;;;;;;26.30;11.97;;;3.50;99.90;;;;;;5024832;28;20422;-62
2021/12/13 10:20:41;;;;;;;33.13;12.77;;;3.50;99.90;;;;;;5024815;28;20818;-62
2021/12/13 10:23:09;;;;;;;28.27;12.23;;;3.60;99.90;;;;;;5019729;28;20431;-62
2021/12/13 10:25:39;;;;;;;20.63;11.23;;;3.70;99.90;;;;;;5008487;28;20451;-62
2021/12/13 10:28:12;;;;;;;31.30;14.23;;;3.70;99.90;;;;;;5009272;28;20414;-61
2021/12/13 10:30:43;;;;;;;25.10;10.57;;;3.80;99.90;;;;;;5007586;28;20672;-59
2021/12/13 10:33:11;;;;;;;26.50;10.30;;;3.80;99.90;;;;;;5027193;28;20415;-61
2021/12/13 10:35:41;;;;;;;23.53;10.33;;;3.80;99.90;;;;;;5027163;28;20987;-61
2021/12/13 10:38:12;;;;;;;26.00;11.10;;;3.90;99.90;;;;;;5023192;28;20415;-62
2021/12/13 10:40:52;;;;;;;29.73;11.63;;;3.90;99.90;;;;;;5004826;28;21158;-60
2021/12/13 10:43:25;;;;;;;26.90;11.27;;;3.90;99.90;;;;;;5019461;28;20423;-61
2021/12/13 10:46:02;;;;;;;24.20;11.37;;;4.00;99.90;;;;;;5015835;28;20497;-61
2021/12/13 10:48:31;;;;;;;32.07;11.77;;;4.00;99.90;;;;;;5007726;28;20427;-59
2021/12/13 10:51:06;;;;;;;27.93;13.07;;;4.10;99.90;;;;;;5010287;28;20432;-62
2021/12/13 10:53:33;;;;;;;22.30;11.77;;;4.20;99.90;;;;;;5009775;28;20426;-61
2021/12/13 10:56:05;;;;;;;36.87;12.40;;;4.30;99.90;;;;;;5010522;28;20522;-62
2021/12/13 10:58:35;;;;;;;33.27;12.27;;;4.30;99.90;;;;;;5007898;28;20954;-62
2021/12/13 11:01:17;;;;;;;33.20;12.80;;;4.40;99.90;;;;;;5022681;28;20544;-62
2021/12/13 11:03:43;;;;;;;35.13;10.33;;;4.40;99.90;;;;;;5009200;28;21304;-62
2021/12/13 11:06:11;;;;;;;26.17;10.90;;;4.40;99.90;;;;;;5014241;28;20551;-62
2021/12/13 11:08:41;;;;;;;38.13;12.53;;;4.40;99.90;;;;;;5012047;28;21191;-62
2021/12/13 11:11:26;;;;;;;30.10;12.80;;;4.50;99.90;;;;;;5015551;28;20482;-62
2021/12/13 11:13:57;;;;;;;29.43;13.63;;;4.50;99.90;;;;;;5016272;28;20418;-62
2021/12/13 11:16:29;;;;;;;43.40;15.80;;;4.60;99.90;;;;;;5009563;28;20446;-62
2021/12/13 11:18:56;;;;;;;52.93;16.50;;;4.70;99.90;;;;;;5022193;28;20442;-62
2021/12/13 11:21:27;;;;;;;53.80;16.80;;;4.70;99.90;;;;;;5006658;28;20582;-62
2021/12/13 11:23:55;;;;;;;59.63;17.80;;;4.80;99.90;;;;;;5005018;28;20438;-62
2021/12/13 11:26:25;;;;;;;40.60;15.03;;;4.80;99.90;;;;;;5008283;28;20815;-62
2021/12/13 11:28:52;;;;;;;29.77;10.80;;;4.80;99.90;;;;;;5020755;28;20407;-62
2021/12/13 11:31:26;;;;;;;21.33;9.90;;;4.80;99.90;;;;;;5019620;28;20436;-62
2021/12/13 11:34:03;;;;;;;24.73;11.40;;;4.80;99.90;;;;;;5018526;28;20799;-62
2021/12/13 11:36:42;;;;;;;36.70;12.30;;;4.90;99.90;;;;;;5011901;28;20509;-63
2021/12/13 11:39:13;;;;;;;38.00;14.00;;;4.90;99.90;;;;;;5014634;28;20426;-62
2021/12/13 11:41:39;;;;;;;34.57;13.20;;;4.90;99.90;;;;;;5019740;28;20459;-63
2021/12/13 11:44:26;;;;;;;23.33;10.30;;;4.90;99.90;;;;;;5026143;28;20433;-62
2021/12/13 11:47:13;;;;;;;18.87;10.00;;;4.90;99.90;;;;;;5011587;28;20701;-62
2021/12/13 11:49:57;;;;;;;32.87;10.67;;;5.00;99.90;;;;;;5011367;28;20546;-61
2021/12/13 11:52:56;;;;;;;28.87;11.23;;;5.00;99.90;;;;;;5024907;28;20449;-62
2021/12/13 11:55:25;;;;;;;31.67;12.30;;;5.00;99.90;;;;;;5026235;28;20427;-63
2021/12/13 11:58:31;;;;;;;30.83;11.20;;;5.00;99.90;;;;;;5028264;28;20434;-62
2021/12/13 12:01:36;;;;;;;26.73;11.13;;;5.00;99.90;;;;;;5015661;28;20463;-63
2021/12/13 12:04:08;;;;;;;23.50;10.70;;;5.00;99.90;;;;;;5002815;28;20465;-62
2021/12/13 12:06:52;;;;;;;24.70;11.03;;;5.00;99.90;;;;;;5009827;28;20546;-62
2021/12/13 12:09:50;;;;;;;23.60;12.13;;;5.00;99.90;;;;;;5001676;28;20459;-61
2021/12/13 12:12:43;;;;;;;29.63;11.20;;;5.00;99.90;;;;;;5013828;28;20698;-60
2021/12/13 12:15:09;;;;;;;23.77;12.43;;;5.00;99.90;;;;;;5007260;28;20435;-61
2021/12/13 12:17:36;;;;;;;30.53;11.73;;;5.00;99.90;;;;;;5026359;28;21213;-61
2021/12/13 12:20:07;;;;;;;27.10;12.60;;;5.00;99.90;;;;;;5008797;28;20462;-61
2021/12/13 12:23:03;;;;;;;26.80;12.40;;;5.00;99.90;;;;;;5033579;28;21055;-60
2021/12/13 12:25:32;;;;;;;23.50;12.13;;;5.00;99.90;;;;;;5025939;28;20885;-62
2021/12/13 12:28:10;;;;;;;29.13;11.50;;;5.00;99.90;;;;;;5024392;28;20455;-63
2021/12/13 12:30:40;;;;;;;26.27;11.80;;;5.10;99.90;;;;;;5021686;28;20423;-63
2021/12/13 12:33:07;;;;;;;26.27;12.43;;;5.00;99.90;;;;;;5009110;28;20413;-63
2021/12/13 12:36:04;;;;;;;24.27;11.43;;;5.00;99.90;;;;;;5013579;28;20430;-60
2021/12/13 12:39:03;;;;;;;21.67;10.60;;;5.00;99.90;;;;;;5027411;28;20440;-62
2021/12/13 12:41:59;;;;;;;26.30;10.67;;;5.00;99.90;;;;;;5004733;28;21391;-62
2021/12/13 12:45:00;;;;;;;25.63;11.03;;;5.10;99.90;;;;;;4991221;28;20427;-62
2021/12/13 12:47:34;;;;;;;21.67;10.70;;;5.00;99.90;;;;;;4992188;28;20504;-61
2021/12/13 12:50:22;;;;;;;22.63;10.70;;;5.00;99.90;;;;;;4997330;28;20510;-62
2021/12/13 12:52:51;;;;;;;20.73;10.17;;;5.00;99.90;;;;;;5011298;28;20968;-62
2021/12/13 12:55:22;;;;;;;22.70;10.60;;;5.00;99.90;;;;;;5004541;28;20426;-61
2021/12/13 12:57:48;;;;;;;23.90;10.53;;;5.10;99.90;;;;;;5002487;28;20452;-61
2021/12/13 13:00:14;;;;;;;23.10;9.80;;;5.10;99.90;;;;;;4996312;28;20447;-60
2021/12/13 13:02:40;;;;;;;21.00;8.90;;;5.20;99.90;;;;;;5000313;28;20470;-62
2021/12/13 13:05:08;;;;;;;23.50;10.50;;;5.20;99.90;;;;;;5011129;28;20435;-62
2021/12/13 13:07:38;;;;;;;18.80;10.07;;;5.30;99.90;;;;;;4993643;28;20310;-62
2021/12/13 13:12:47;;;;;;;30.20;13.43;;;5.40;99.90;;;;;;4991136;28;20450;-62
2021/12/13 13:15:24;;;;;;;32.17;13.17;;;5.40;99.90;;;;;;5014712;28;20458;-63
2021/12/13 13:18:01;;;;;;;17.43;8.33;;;5.40;99.90;;;;;;4992153;28;20454;-63
2021/12/13 13:20:38;;;;;;;13.70;7.23;;;5.40;99.90;;;;;;4992243;28;20496;-62
2021/12/13 13:23:05;;;;;;;13.47;6.70;;;5.50;99.90;;;;;;5002149;28;20422;-62
2021/12/13 13:25:40;;;;;;;13.10;7.30;;;5.50;99.90;;;;;;4995061;28;20427;-62
2021/12/13 13:28:25;;;;;;;9.10;5.90;;;5.50;99.90;;;;;;4995063;28;20826;-62
2021/12/13 13:31:25;;;;;;;7.50;5.70;;;5.60;99.90;;;;;;4993231;28;20434;-62
2021/12/13 13:34:03;;;;;;;8.63;4.60;;;5.60;99.90;;;;;;4995598;28;20964;-62
2021/12/13 13:36:42;;;;;;;9.90;4.50;;;5.60;99.90;;;;;;5007806;28;20589;-63
2021/12/13 13:39:21;;;;;;;4.50;3.60;;;5.70;99.90;;;;;;5012346;28;20930;-62
2021/12/13 13:41:55;;;;;;;7.07;3.60;;;5.70;99.90;;;;;;5011153;28;20471;-62
2021/12/13 13:44:24;;;;;;;10.30;4.90;;;5.70;99.90;;;;;;5007141;28;20423;-62
2021/12/13 13:47:26;;;;;;;7.47;4.97;;;5.80;99.90;;;;;;4999056;28;20446;-62